Time;durP1;ratioP1;P1;durP2;ratioP2;P2;SDS_P1;SDS_P2;PMS_P1;PMS_P2;Temp;Humidity;BMP_temperature;BMP_pressure;BME280_temperature;BME280_humidity;BME280_pressure;Samples;Min_cycle;Max_cycle;Signal;HPM_P1;HPM_P2
2022/05/25 00:01:35;;;;;;;;;;;11.00;1.00;;;;;;5098665;28;19928;-84
2022/05/25 00:04:01;;;;;;;;;;;10.90;1.00;;;;;;5065234;28;19932;-84
2022/05/25 00:06:28;;;;;;;;;;;10.90;1.00;;;;;;5060174;28;19908;-84
2022/05/25 00:08:54;;;;;;;;;;;10.90;1.00;;;;;;5071633;28;19913;-84
2022/05/25 00:11:19;;;;;;;;;;;10.90;1.00;;;;;;5072320;28;19915;-84
2022/05/25 00:13:45;;;;;;;;;;;11.00;1.00;;;;;;5053398;28;19999;-76
2022/05/25 00:16:10;;;;;;;;;;;10.90;1.00;;;;;;5068185;28;20387;-76
2022/05/25 00:18:36;;;;;;;;;;;10.90;1.00;;;;;;5061133;28;19912;-75
2022/05/25 00:21:01;;;;;;;;;;;10.90;1.00;;;;;;5069454;28;19987;-76
2022/05/25 00:23:27;;;;;;;;;;;10.80;1.00;;;;;;5066895;28;20340;-76
2022/05/25 00:25:52;;;;;;;;;;;10.80;1.00;;;;;;5070517;28;19927;-76
2022/05/25 00:28:18;;;;;;;;;;;10.90;1.00;;;;;;5053809;28;19919;-76
2022/05/25 00:30:46;;;;;;;;;;;10.80;1.00;;;;;;5089953;28;19916;-83
2022/05/25 00:33:12;;;;;;;;;;;10.90;1.00;;;;;;5062905;28;19925;-83
2022/05/25 00:35:38;;;;;;;;;;;10.90;1.00;;;;;;5060336;28;19909;-83
2022/05/25 00:38:05;;;;;;;;;;;10.80;1.00;;;;;;5059324;28;20011;-83
2022/05/25 00:40:38;;;;;;;;;;;10.90;1.00;;;;;;5072415;28;19967;-83
2022/05/25 00:43:04;;;;;;;;;;;10.80;1.00;;;;;;5071594;28;20279;-83
2022/05/25 00:45:38;;;;;;;;;;;10.80;1.00;;;;;;5065321;28;19916;-75
2022/05/25 00:48:05;;;;;;;;;;;10.80;1.00;;;;;;5064996;28;19913;-76
2022/05/25 00:51:12;;;;;;;;;;;10.80;1.00;;;;;;5053373;28;19909;-76
2022/05/25 00:53:22;;;;;;;;;;;10.80;1.00;;;;;;5070904;28;19917;-76
2022/05/25 00:55:48;;;;;;;;;;;10.80;1.00;;;;;;5060634;28;19909;-76
2022/05/25 00:58:14;;;;;;;;;;;10.70;1.00;;;;;;5067107;28;19923;-76
2022/05/25 01:00:39;;;;;;;;;;;10.70;1.00;;;;;;5066503;28;19908;-83
2022/05/25 01:03:08;;;;;;;;;;;10.70;1.00;;;;;;5093597;28;20372;-83
2022/05/25 01:05:38;;;;;;;;;;;10.70;1.00;;;;;;5052750;28;19920;-83
2022/05/25 01:08:28;;;;;;;;;;;10.80;1.00;;;;;;5060137;28;19930;-83
2022/05/25 01:10:56;;;;;;;;;;;10.70;1.00;;;;;;5057008;28;20000;-83
2022/05/25 01:13:22;;;;;;;;;;;10.70;1.00;;;;;;5062558;28;19912;-83
2022/05/25 01:15:47;;;;;;;;;;;10.60;1.00;;;;;;5088395;28;19919;-83
2022/05/25 01:18:29;;;;;;;;;;;10.60;1.00;;;;;;5063597;28;19913;-83
2022/05/25 01:20:57;;;;;;;;;;;10.60;1.00;;;;;;5071639;28;20212;-83
2022/05/25 01:23:25;;;;;;;;;;;10.60;1.00;;;;;;5069196;28;19916;-83
2022/05/25 01:26:09;;;;;;;;;;;10.50;1.00;;;;;;5059169;28;19909;-83
2022/05/25 01:28:53;;;;;;;;;;;10.50;1.00;;;;;;5071832;28;20095;-83
2022/05/25 01:31:30;;;;;;;;;;;10.50;1.00;;;;;;5073441;28;19965;-76
2022/05/25 01:33:59;;;;;;;;;;;10.40;1.00;;;;;;5071742;28;19916;-76
2022/05/25 01:36:28;;;;;;;;;;;10.40;1.00;;;;;;5057387;28;19924;-76
2022/05/25 01:39:01;;;;;;;;;;;10.30;1.00;;;;;;5051558;28;19913;-76
2022/05/25 01:41:32;;;;;;;;;;;10.30;1.00;;;;;;5051556;28;19920;-76
2022/05/25 01:44:00;;;;;;;;;;;10.30;1.00;;;;;;5052662;28;19912;-76
2022/05/25 01:46:31;;;;;;;;;;;10.20;1.00;;;;;;5061466;28;19913;-76
2022/05/25 01:48:57;;;;;;;;;;;10.20;1.00;;;;;;5065847;28;20445;-76
2022/05/25 01:51:30;;;;;;;;;;;10.10;1.00;;;;;;5105475;28;19916;-76
2022/05/25 01:53:58;;;;;;;;;;;10.10;1.00;;;;;;5067073;28;20428;-76
2022/05/25 01:56:24;;;;;;;;;;;10.00;1.00;;;;;;5074688;28;19919;-76
2022/05/25 01:58:52;;;;;;;;;;;10.00;1.00;;;;;;5072021;28;19919;-76
2022/05/25 02:01:20;;;;;;;;;;;10.00;1.00;;;;;;5065714;28;20283;-75
2022/05/25 02:06:45;;;;;;;;;;;9.90;1.00;;;;;;5070111;28;20011;-76
2022/05/25 02:09:31;;;;;;;;;;;9.80;1.00;;;;;;5065079;28;20353;-75
2022/05/25 02:12:00;;;;;;;;;;;9.80;1.00;;;;;;5073737;28;19908;-75
2022/05/25 02:14:54;;;;;;;;;;;9.70;1.00;;;;;;5064046;28;19912;-82
2022/05/25 02:17:20;;;;;;;;;;;9.70;1.00;;;;;;5042723;28;20454;-76
2022/05/25 02:19:48;;;;;;;;;;;9.70;1.00;;;;;;5053180;28;19920;-76
2022/05/25 02:22:18;;;;;;;;;;;9.60;1.00;;;;;;5053883;28;19909;-76
2022/05/25 02:24:57;;;;;;;;;;;9.60;1.00;;;;;;5038134;28;19955;-76
2022/05/25 02:27:28;;;;;;;;;;;9.50;1.00;;;;;;5028338;28;19913;-75
2022/05/25 02:29:57;;;;;;;;;;;9.50;1.00;;;;;;5036656;28;19917;-83
2022/05/25 02:32:39;;;;;;;;;;;9.40;1.00;;;;;;5046329;28;19913;-83
2022/05/25 02:35:05;;;;;;;;;;;9.40;1.00;;;;;;5026748;28;19920;-83
2022/05/25 02:37:32;;;;;;;;;;;9.40;1.00;;;;;;5023927;28;20048;-83
2022/05/25 02:39:59;;;;;;;;;;;9.40;1.00;;;;;;5033891;28;19913;-83
2022/05/25 02:42:25;;;;;;;;;;;9.30;1.00;;;;;;5037597;28;19924;-83
2022/05/25 02:44:50;;;;;;;;;;;9.30;1.00;;;;;;5048654;28;19923;-76
2022/05/25 02:47:16;;;;;;;;;;;9.20;1.00;;;;;;5033213;28;20339;-75
2022/05/25 02:49:42;;;;;;;;;;;9.20;1.00;;;;;;5033658;28;20460;-76
2022/05/25 02:52:08;;;;;;;;;;;9.30;1.00;;;;;;5042454;28;19909;-76
2022/05/25 02:54:34;;;;;;;;;;;9.20;1.00;;;;;;5059855;28;20383;-75
2022/05/25 02:57:00;;;;;;;;;;;9.10;1.00;;;;;;5075499;28;19912;-76
2022/05/25 02:59:25;;;;;;;;;;;9.10;1.00;;;;;;5062289;28;20378;-76
2022/05/25 03:01:51;;;;;;;;;;;9.20;1.00;;;;;;5086452;28;20274;-76
2022/05/25 03:04:16;;;;;;;;;;;9.10;1.00;;;;;;5056683;28;20245;-75
2022/05/25 03:06:42;;;;;;;;;;;9.10;1.00;;;;;;5075022;28;19917;-76
2022/05/25 03:09:08;;;;;;;;;;;9.10;1.00;;;;;;5065575;28;20379;-76
2022/05/25 03:11:33;;;;;;;;;;;9.10;1.00;;;;;;5072393;28;19920;-75
2022/05/25 03:13:59;;;;;;;;;;;9.00;1.00;;;;;;5059291;28;20425;-76
2022/05/25 03:16:25;;;;;;;;;;;9.00;1.00;;;;;;5075518;28;19916;-83
2022/05/25 03:18:52;;;;;;;;;;;8.90;1.00;;;;;;5066143;28;20344;-83
2022/05/25 03:21:18;;;;;;;;;;;8.90;1.00;;;;;;5075591;28;20378;-83
2022/05/25 03:23:44;;;;;;;;;;;9.00;1.00;;;;;;5073681;28;20260;-83
2022/05/25 03:26:09;;;;;;;;;;;8.90;1.00;;;;;;5055242;28;19935;-83
2022/05/25 03:28:40;;;;;;;;;;;9.00;1.00;;;;;;5056717;28;19913;-83
2022/05/25 03:31:06;;;;;;;;;;;8.80;1.00;;;;;;5074089;28;19919;-83
2022/05/25 03:33:34;;;;;;;;;;;9.00;1.00;;;;;;5054793;28;19916;-83
2022/05/25 03:36:04;;;;;;;;;;;8.70;1.00;;;;;;5062756;28;19909;-83
2022/05/25 03:38:30;;;;;;;;;;;8.70;1.00;;;;;;5057251;28;19916;-83
2022/05/25 03:40:57;;;;;;;;;;;8.80;1.00;;;;;;5065684;28;20057;-83
2022/05/25 03:43:25;;;;;;;;;;;8.70;1.00;;;;;;5062170;28;20350;-82
2022/05/25 03:45:51;;;;;;;;;;;8.70;1.00;;;;;;5044564;28;19920;-76
2022/05/25 03:48:17;;;;;;;;;;;8.70;1.00;;;;;;5051685;28;19913;-75
2022/05/25 03:50:42;;;;;;;;;;;8.70;1.00;;;;;;5058272;28;19938;-75
2022/05/25 03:53:12;;;;;;;;;;;8.80;1.00;;;;;;5056037;28;19915;-75
2022/05/25 03:55:37;;;;;;;;;;;8.60;1.00;;;;;;5074101;28;20386;-76
2022/05/25 03:58:03;;;;;;;;;;;8.70;1.00;;;;;;5058697;28;19913;-75
2022/05/25 04:00:29;;;;;;;;;;;8.60;1.00;;;;;;5057312;28;19919;-86
2022/05/25 04:02:57;;;;;;;;;;;8.70;1.00;;;;;;5071084;28;19915;-77
2022/05/25 04:05:23;;;;;;;;;;;8.80;1.00;;;;;;5064962;28;19913;-77
2022/05/25 04:07:48;;;;;;;;;;;8.70;1.00;;;;;;5106701;28;20325;-77
2022/05/25 04:10:15;;;;;;;;;;;8.60;1.00;;;;;;5065138;28;20363;-77
2022/05/25 04:12:42;;;;;;;;;;;8.70;1.00;;;;;;5066162;28;19909;-78
2022/05/25 04:15:08;;;;;;;;;;;8.70;1.00;;;;;;5072529;28;20363;-78
2022/05/25 04:17:33;;;;;;;;;;;8.70;1.00;;;;;;5067516;28;20007;-81
2022/05/25 04:19:59;;;;;;;;;;;8.90;1.00;;;;;;5062188;28;20020;-81
2022/05/25 04:22:25;;;;;;;;;;;8.90;1.00;;;;;;5096994;28;19962;-81
2022/05/25 04:24:50;;;;;;;;;;;8.80;1.00;;;;;;5073672;28;19920;-82
2022/05/25 04:27:16;;;;;;;;;;;9.00;1.00;;;;;;5065116;28;20292;-81
2022/05/25 04:29:42;;;;;;;;;;;8.90;1.00;;;;;;5062783;28;19964;-82
2022/05/25 04:32:07;;;;;;;;;;;8.90;1.00;;;;;;5073360;28;19908;-78
2022/05/25 04:34:33;;;;;;;;;;;9.00;1.00;;;;;;5073621;28;19916;-78
2022/05/25 04:37:48;;;;;;;;;;;9.10;1.00;;;;;;5072970;28;19913;-78
2022/05/25 04:39:44;;;;;;;;;;;9.20;1.00;;;;;;5065371;28;19909;-78
2022/05/25 04:42:09;;;;;;;;;;;9.10;1.00;;;;;;5058966;28;20396;-78
2022/05/25 04:44:35;;;;;;;;;;;9.20;1.00;;;;;;5062190;28;19913;-77
2022/05/25 04:47:00;;;;;;;;;;;9.30;1.00;;;;;;5060049;28;20387;-78
2022/05/25 04:49:26;;;;;;;;;;;9.40;1.00;;;;;;5060369;28;20027;-77
2022/05/25 04:51:52;;;;;;;;;;;9.40;1.00;;;;;;5061727;28;19912;-77
2022/05/25 04:54:17;;;;;;;;;;;9.50;1.00;;;;;;5059010;28;20007;-78
2022/05/25 04:59:27;;;;;;;;;;;9.70;1.00;;;;;;5052194;28;19916;-78
2022/05/25 05:01:52;;;;;;;;;;;9.80;1.00;;;;;;5053465;28;19917;-81
2022/05/25 05:04:17;;;;;;;;;;;9.80;1.00;;;;;;5052969;28;19909;-81
2022/05/25 05:06:44;;;;;;;;;;;9.90;1.00;;;;;;5064013;28;19908;-81
2022/05/25 05:09:10;;;;;;;;;;;10.00;1.00;;;;;;5053342;28;19913;-81
2022/05/25 05:11:37;;;;;;;;;;;10.10;1.00;;;;;;5051407;28;19912;-75
2022/05/25 05:14:03;;;;;;;;;;;10.20;1.00;;;;;;5063586;28;20288;-75
2022/05/25 05:16:28;;;;;;;;;;;10.30;1.00;;;;;;5052388;28;20454;-75
2022/05/25 05:18:54;;;;;;;;;;;10.30;1.00;;;;;;5049416;28;19999;-75
2022/05/25 05:21:19;;;;;;;;;;;10.40;1.00;;;;;;5055975;28;20008;-75
2022/05/25 05:23:45;;;;;;;;;;;10.60;1.00;;;;;;5054040;28;20269;-75
2022/05/25 05:26:11;;;;;;;;;;;10.70;1.00;;;;;;5056677;28;20155;-75
2022/05/25 05:28:38;;;;;;;;;;;10.80;1.00;;;;;;5055923;28;19958;-75
2022/05/25 05:31:04;;;;;;;;;;;10.90;1.00;;;;;;5055496;28;19916;-75
2022/05/25 05:33:29;;;;;;;;;;;11.00;1.00;;;;;;5061905;28;20000;-82
2022/05/25 05:35:59;;;;;;;;;;;11.10;1.00;;;;;;5104086;28;19983;-82
2022/05/25 05:38:25;;;;;;;;;;;11.30;1.00;;;;;;5073961;28;20019;-82
2022/05/25 05:40:52;;;;;;;;;;;11.40;1.00;;;;;;5107003;28;20339;-83
2022/05/25 05:43:19;;;;;;;;;;;11.50;1.00;;;;;;5075757;28;19915;-83
2022/05/25 05:45:53;;;;;;;;;;;11.70;1.00;;;;;;5057789;28;19980;-82
2022/05/25 05:48:24;;;;;;;;;;;11.80;1.00;;;;;;5053008;28;20436;-83
2022/05/25 05:50:51;;;;;;;;;;;11.90;1.00;;;;;;5049155;28;19944;-82
2022/05/25 05:53:18;;;;;;;;;;;12.10;1.00;;;;;;5075325;28;20486;-82
2022/05/25 05:55:44;;;;;;;;;;;12.20;1.00;;;;;;5072550;28;19913;-83
2022/05/25 05:58:11;;;;;;;;;;;12.40;1.00;;;;;;5060718;28;19912;-82
2022/05/25 06:00:37;;;;;;;;;;;12.50;1.00;;;;;;5071294;28;19912;-83
2022/05/25 06:03:04;;;;;;;;;;;12.70;1.00;;;;;;5069969;28;20428;-83
2022/05/25 06:05:30;;;;;;;;;;;12.80;1.00;;;;;;5063200;28;20001;-82
2022/05/25 06:08:15;;;;;;;;;;;12.90;1.00;;;;;;5070393;28;20340;-83
2022/05/25 06:10:52;;;;;;;;;;;13.00;1.00;;;;;;5056287;28;20371;-83
2022/05/25 06:13:18;;;;;;;;;;;13.20;1.00;;;;;;5059895;28;20011;-83
2022/05/25 06:21:16;;;;;;;;;;;13.60;1.00;;;;;;5054210;28;19930;-76
2022/05/25 06:23:41;;;;;;;;;;;13.70;1.00;;;;;;5103596;28;20276;-76
2022/05/25 06:26:07;;;;;;;;;;;13.80;1.00;;;;;;5065091;28;19915;-76
2022/05/25 06:28:33;;;;;;;;;;;13.90;1.00;;;;;;5074550;28;19916;-76
2022/05/25 06:31:00;;;;;;;;;;;14.00;1.00;;;;;;5070146;28;20192;-76
2022/05/25 06:33:26;;;;;;;;;;;14.10;1.00;;;;;;5071319;28;20140;-84
2022/05/25 06:35:51;;;;;;;;;;;14.20;1.00;;;;;;5101644;28;20351;-70
2022/05/25 06:38:17;;;;;;;;;;;14.30;99.90;;;;;;5052816;28;20007;-71
2022/05/25 06:40:42;;;;;;;;;;;14.50;99.90;;;;;;5054377;28;19923;-71
2022/05/25 06:43:08;;;;;;;;;;;14.60;99.90;;;;;;5070049;28;19974;-71
2022/05/25 06:45:33;;;;;;;;;;;14.70;99.90;;;;;;5060087;28;19921;-70
2022/05/25 06:48:01;;;;;;;;;;;14.80;99.90;;;;;;5056413;28;19916;-72
2022/05/25 06:50:27;;;;;;;;;;;14.90;99.90;;;;;;5060110;28;19917;-72
2022/05/25 06:52:52;;;;;;;;;;;15.10;99.90;;;;;;5068739;28;20001;-72
2022/05/25 06:55:18;;;;;;;;;;;15.00;99.90;;;;;;5063490;28;19912;-72
2022/05/25 06:57:43;;;;;;;;;;;15.30;99.90;;;;;;5070802;28;19920;-72
2022/05/25 07:00:09;;;;;;;;;;;15.40;99.90;;;;;;5061086;28;19920;-73
2022/05/25 07:02:34;;;;;;;;;;;15.60;99.90;;;;;;5070882;28;20003;-71
2022/05/25 07:05:00;;;;;;;;;;;15.70;99.90;;;;;;5054381;28;20364;-71
2022/05/25 07:07:26;;;;;;;;;;;15.70;99.90;;;;;;5066513;28;19930;-71
2022/05/25 07:09:51;;;;;;;;;;;15.80;99.90;;;;;;5073017;28;19960;-71
2022/05/25 07:12:17;;;;;;;;;;;16.00;99.90;;;;;;5067981;28;19916;-71
2022/05/25 07:14:43;;;;;;;;;;;16.00;99.90;;;;;;5063313;28;19917;-85
2022/05/25 07:17:09;;;;;;;;;;;16.00;99.90;;;;;;5089332;28;19999;-84
2022/05/25 07:19:34;;;;;;;;;;;16.10;99.90;;;;;;5073779;28;19917;-76
2022/05/25 07:22:00;;;;;;;;;;;16.20;99.90;;;;;;5107467;28;19915;-77
2022/05/25 07:24:25;;;;;;;;;;;16.10;99.90;;;;;;5066152;28;19913;-76
2022/05/25 07:26:51;;;;;;;;;;;16.30;99.90;;;;;;5063542;28;20299;-77
2022/05/25 07:29:16;;;;;;;;;;;16.40;99.90;;;;;;5074986;28;20364;-76
2022/05/25 07:31:50;;;;;;;;;;;16.50;99.90;;;;;;5072987;28;19983;-77
2022/05/25 07:34:20;;;;;;;;;;;16.70;99.90;;;;;;5064327;28;19923;-76
2022/05/25 07:37:06;;;;;;;;;;;16.70;99.90;;;;;;5072221;28;20356;-76
2022/05/25 07:39:36;;;;;;;;;;;16.80;99.90;;;;;;5065944;28;19916;-76
2022/05/25 07:42:03;;;;;;;;;;;16.90;99.90;;;;;;5067287;28;20360;-77
2022/05/25 07:44:40;;;;;;;;;;;17.00;99.90;;;;;;5054906;28;20260;-76
2022/05/25 07:47:06;;;;;;;;;;;17.10;99.90;;;;;;5047722;28;19913;-77
2022/05/25 07:49:34;;;;;;;;;;;17.10;99.90;;;;;;5054476;28;20284;-84
2022/05/25 07:52:01;;;;;;;;;;;17.20;99.90;;;;;;5057919;28;19913;-84
2022/05/25 07:54:26;;;;;;;;;;;17.30;99.90;;;;;;5053447;28;19935;-84
2022/05/25 07:56:52;;;;;;;;;;;17.30;99.90;;;;;;5062835;28;20347;-84
2022/05/25 07:59:18;;;;;;;;;;;17.30;99.90;;;;;;5106555;28;19974;-84
2022/05/25 08:07:18;;;;;;;;;;;17.40;99.90;;;;;;5068568;28;19996;-84
2022/05/25 08:09:43;;;;;;;;;;;17.40;99.90;;;;;;5070343;28;20019;-85
2022/05/25 08:12:09;;;;;;;;;;;17.60;99.90;;;;;;5059429;28;20003;-85
2022/05/25 08:14:35;;;;;;;;;;;17.80;99.90;;;;;;5071402;28;20359;-84
2022/05/25 08:17:00;;;;;;;;;;;17.80;99.90;;;;;;5058003;28;20015;-85
2022/05/25 08:19:26;;;;;;;;;;;17.90;99.90;;;;;;5059476;28;19909;-85
2022/05/25 08:21:52;;;;;;;;;;;17.80;99.90;;;;;;5066015;28;20347;-85
2022/05/25 08:24:18;;;;;;;;;;;17.90;99.90;;;;;;5069958;28;20003;-85
2022/05/25 08:26:44;;;;;;;;;;;17.90;99.90;;;;;;5059529;28;20588;-85
2022/05/25 08:29:10;;;;;;;;;;;18.00;99.90;;;;;;5058480;28;19916;-86
2022/05/25 08:31:35;;;;;;;;;;;18.10;99.90;;;;;;5058035;28;20360;-86
2022/05/25 08:34:01;;;;;;;;;;;18.20;99.90;;;;;;5053408;28;19924;-74
2022/05/25 08:36:27;;;;;;;;;;;18.30;99.90;;;;;;5052247;28;20350;-75
2022/05/25 08:38:55;;;;;;;;;;;18.40;99.90;;;;;;5053208;28;19917;-74
2022/05/25 08:41:22;;;;;;;;;;;18.40;99.90;;;;;;5063766;28;19908;-74
2022/05/25 08:43:49;;;;;;;;;;;18.50;99.90;;;;;;5072057;28;19951;-74
2022/05/25 08:46:18;;;;;;;;;;;18.70;99.90;;;;;;5058803;28;19920;-75
2022/05/25 08:48:44;;;;;;;;;;;19.00;99.90;;;;;;5085807;28;19913;-74
2022/05/25 08:51:11;;;;;;;;;;;19.10;99.90;;;;;;5064653;28;19916;-74
2022/05/25 08:53:37;;;;;;;;;;;19.00;99.90;;;;;;5105733;28;19997;-75
2022/05/25 08:56:03;;;;;;;;;;;18.90;99.90;;;;;;5072007;28;19909;-74
2022/05/25 08:58:33;;;;;;;;;;;19.10;99.90;;;;;;5073168;28;20328;-74
2022/05/25 09:01:01;;;;;;;;;;;19.00;99.90;;;;;;5073140;28;19908;-75
2022/05/25 09:03:31;;;;;;;;;;;19.10;99.90;;;;;;5073370;28;19908;-82
2022/05/25 09:06:19;;;;;;;;;;;19.20;99.90;;;;;;5070538;28;19948;-75
2022/05/25 09:08:55;;;;;;;;;;;19.30;99.90;;;;;;5068915;28;19999;-74
2022/05/25 09:11:24;;;;;;;;;;;19.30;99.90;;;;;;5072212;28;19908;-74
2022/05/25 09:14:02;;;;;;;;;;;19.30;99.90;;;;;;5064312;28;19956;-75
2022/05/25 09:16:29;;;;;;;;;;;19.30;99.90;;;;;;5072041;28;19913;-74
2022/05/25 09:19:05;;;;;;;;;;;19.30;99.90;;;;;;5073309;28;19916;-74
2022/05/25 09:21:33;;;;;;;;;;;19.40;99.90;;;;;;5073019;28;19908;-74
2022/05/25 09:24:01;;;;;;;;;;;19.50;99.90;;;;;;5072887;28;19956;-74
2022/05/25 09:26:27;;;;;;;;;;;19.60;99.90;;;;;;5105278;28;19908;-74
2022/05/25 09:28:54;;;;;;;;;;;19.80;99.90;;;;;;5073269;28;20007;-74
2022/05/25 09:31:23;;;;;;;;;;;19.60;99.90;;;;;;5072836;28;19916;-74
2022/05/25 09:33:50;;;;;;;;;;;19.80;99.90;;;;;;5073228;28;19970;-75
2022/05/25 09:36:21;;;;;;;;;;;19.80;99.90;;;;;;5072533;28;19931;-74
2022/05/25 09:39:03;;;;;;;;;;;19.70;99.90;;;;;;5072760;28;19916;-74
2022/05/25 09:41:31;;;;;;;;;;;19.70;99.90;;;;;;5072770;28;19909;-74
2022/05/25 09:43:58;;;;;;;;;;;19.70;99.90;;;;;;5054394;28;20007;-74
2022/05/25 09:46:34;;;;;;;;;;;19.80;99.90;;;;;;5072247;28;19908;-74
2022/05/25 09:49:02;;;;;;;;;;;19.80;99.90;;;;;;5073098;28;19908;-83
2022/05/25 09:51:33;;;;;;;;;;;20.00;99.90;;;;;;5073116;28;19915;-84
2022/05/25 09:54:06;;;;;;;;;;;20.00;99.90;;;;;;5073204;28;19951;-83
2022/05/25 09:56:46;;;;;;;;;;;20.20;99.90;;;;;;5073245;28;19919;-83
2022/05/25 09:59:21;;;;;;;;;;;20.20;99.90;;;;;;5073015;28;20403;-83
2022/05/25 10:01:48;;;;;;;;;;;20.20;99.90;;;;;;5073081;28;19978;-83
2022/05/25 10:04:32;;;;;;;;;;;20.30;99.90;;;;;;5071382;28;19965;-74
2022/05/25 10:06:58;;;;;;;;;;;20.60;99.90;;;;;;5086324;28;19980;-74
2022/05/25 10:09:25;;;;;;;;;;;20.90;99.90;;;;;;5072641;28;19913;-74
2022/05/25 10:11:52;;;;;;;;;;;21.10;99.90;;;;;;5068654;28;20122;-74
2022/05/25 10:14:26;;;;;;;;;;;21.00;99.90;;;;;;5064019;28;19916;-74
2022/05/25 10:16:53;;;;;;;;;;;21.20;99.90;;;;;;5055777;28;19924;-74
2022/05/25 10:19:19;;;;;;;;;;;21.50;99.90;;;;;;5076166;28;19912;-83
2022/05/25 10:21:52;;;;;;;;;;;21.70;99.90;;;;;;5075995;28;19909;-83
2022/05/25 10:24:20;;;;;;;;;;;21.90;99.90;;;;;;5076248;28;19908;-84
2022/05/25 10:26:51;;;;;;;;;;;21.80;99.90;;;;;;5108891;28;20299;-84
2022/05/25 10:38:13;;;;;;;;;;;22.40;99.90;;;;;;5075953;28;20457;-83
2022/05/25 10:40:43;;;;;;;;;;;22.50;99.90;;;;;;5065127;28;19944;-84
2022/05/25 10:43:12;;;;;;;;;;;22.30;99.90;;;;;;5055876;28;19976;-83
2022/05/25 10:45:39;;;;;;;;;;;22.00;99.90;;;;;;5068818;28;20049;-83
2022/05/25 10:48:12;;;;;;;;;;;21.60;99.90;;;;;;5074565;28;19974;-83
2022/05/25 10:50:56;;;;;;;;;;;21.30;99.90;;;;;;5076336;28;19908;-74
2022/05/25 10:53:26;;;;;;;;;;;21.00;99.90;;;;;;5075415;28;19915;-74
2022/05/25 10:56:03;;;;;;;;;;;20.90;99.90;;;;;;5075488;28;20003;-74
2022/05/25 10:58:47;;;;;;;;;;;20.80;99.90;;;;;;5075069;28;20006;-74
2022/05/25 11:01:22;;;;;;;;;;;20.90;99.90;;;;;;5074953;28;20011;-71
2022/05/25 11:04:10;;;;;;;;;;;21.10;99.90;;;;;;5075345;28;19912;-71
2022/05/25 11:06:55;;;;;;;;;;;21.20;99.90;;;;;;5053844;28;19912;-71
2022/05/25 11:09:21;;;;;;;;;;;21.30;99.90;;;;;;5046411;28;19912;-71
2022/05/25 11:11:46;;;;;;;;;;;21.20;99.90;;;;;;5048125;28;19909;-71
2022/05/25 11:14:32;;;;;;;;;;;21.20;99.90;;;;;;5032752;28;20371;-73
2022/05/25 11:17:01;;;;;;;;;;;21.20;99.90;;;;;;5042851;28;20042;-71
2022/05/25 11:19:54;;;;;;;;;;;21.20;99.90;;;;;;5040190;28;20003;-81
2022/05/25 11:22:19;;;;;;;;;;;21.10;99.90;;;;;;5036489;28;19917;-86
2022/05/25 11:25:03;;;;;;;;;;;21.00;99.90;;;;;;5039984;28;19992;-80
2022/05/25 11:27:29;;;;;;;;;;;21.20;99.90;;;;;;5051943;28;19927;-92
2022/05/25 11:30:32;;;;;;;;;;;21.20;99.90;;;;;;5022462;28;19980;-92
2022/05/25 11:33:01;;;;;;;;;;;21.10;99.90;;;;;;4988936;28;19919;-71
2022/05/25 11:35:35;;;;;;;;;;;20.90;99.90;;;;;;4979201;28;19910;-70
2022/05/25 11:38:17;;;;;;;;;;;21.00;99.90;;;;;;4992671;28;19914;-71
2022/05/25 11:40:45;;;;;;;;;;;20.70;99.90;;;;;;4985991;28;19974;-71
2022/05/25 11:43:20;;;;;;;;;;;21.10;99.90;;;;;;4985800;28;19915;-72
2022/05/25 11:46:17;;;;;;;;;;;21.20;99.90;;;;;;4979678;28;19921;-71
2022/05/25 11:49:15;;;;;;;;;;;21.40;99.90;;;;;;5009985;28;19913;-71
2022/05/25 11:51:59;;;;;;;;;;;21.70;99.90;;;;;;4972179;28;19969;-71
2022/05/25 11:54:44;;;;;;;;;;;21.80;99.90;;;;;;4954007;29;19919;-70
2022/05/25 11:57:25;;;;;;;;;;;21.90;99.90;;;;;;4953409;28;19957;-71
2022/05/25 12:00:04;;;;;;;;;;;21.90;99.90;;;;;;4966214;28;19925;-71
2022/05/25 12:02:48;;;;;;;;;;;21.80;99.90;;;;;;4962742;28;20693;-70
2022/05/25 12:05:26;;;;;;;;;;;21.70;99.90;;;;;;4952312;28;19930;-70
2022/05/25 12:08:09;;;;;;;;;;;21.40;99.90;;;;;;4949469;28;19921;-71
2022/05/25 12:10:40;;;;;;;;;;;21.30;99.90;;;;;;4954210;28;20018;-71
2022/05/25 12:13:15;;;;;;;;;;;21.40;99.90;;;;;;4953698;28;20313;-71
2022/05/25 12:15:52;;;;;;;;;;;21.80;99.90;;;;;;4953159;29;20384;-71
2022/05/25 12:18:27;;;;;;;;;;;22.00;99.90;;;;;;4964950;28;20008;-71
2022/05/25 12:20:59;;;;;;;;;;;22.00;99.90;;;;;;4949927;28;19942;-70
2022/05/25 12:23:29;;;;;;;;;;;22.40;99.90;;;;;;4971855;28;20012;-70
2022/05/25 12:25:56;;;;;;;;;;;22.40;99.90;;;;;;5003990;28;19981;-70
2022/05/25 12:28:25;;;;;;;;;;;22.40;99.90;;;;;;5031015;28;19980;-71
2022/05/25 12:30:54;;;;;;;;;;;22.40;99.90;;;;;;5061443;28;20450;-71
2022/05/25 12:33:23;;;;;;;;;;;22.60;99.90;;;;;;5052870;28;19965;-71
2022/05/25 12:35:49;;;;;;;;;;;22.60;99.90;;;;;;5059808;28;20255;-71
2022/05/25 12:38:16;;;;;;;;;;;22.30;99.90;;;;;;5072871;28;19920;-71
2022/05/25 12:40:43;;;;;;;;;;;22.30;99.90;;;;;;5073167;28;19915;-71
2022/05/25 12:43:27;;;;;;;;;;;22.10;99.90;;;;;;5072967;28;19909;-71
2022/05/25 12:48:46;;;;;;;;;;;22.30;99.90;;;;;;5071639;28;19916;-71
2022/05/25 12:51:30;;;;;;;;;;;22.30;99.90;;;;;;5073543;28;19961;-70
2022/05/25 12:53:57;;;;;;;;;;;21.90;99.90;;;;;;5053375;28;19920;-71
2022/05/25 12:56:25;;;;;;;;;;;21.90;99.90;;;;;;5055230;28;19919;-71
2022/05/25 12:58:53;;;;;;;;;;;22.20;99.90;;;;;;5062550;28;19976;-71
2022/05/25 13:01:21;;;;;;;;;;;22.30;99.90;;;;;;5065434;28;19913;-71
2022/05/25 13:03:47;;;;;;;;;;;22.20;99.90;;;;;;5060495;28;19919;-71
2022/05/25 13:06:14;;;;;;;;;;;22.20;99.90;;;;;;5064466;28;20291;-71
2022/05/25 13:08:46;;;;;;;;;;;22.50;99.90;;;;;;5051479;28;19983;-71
2022/05/25 13:11:30;;;;;;;;;;;22.60;99.90;;;;;;5065569;28;19912;-71
2022/05/25 13:13:56;;;;;;;;;;;22.50;99.90;;;;;;5051274;28;19913;-71
2022/05/25 13:16:48;;;;;;;;;;;22.40;99.90;;;;;;5055874;28;20330;-71
2022/05/25 13:19:29;;;;;;;;;;;22.10;99.90;;;;;;5026212;28;19920;-71
2022/05/25 13:22:06;;;;;;;;;;;22.40;99.90;;;;;;5018321;28;19914;-71
2022/05/25 13:24:53;;;;;;;;;;;22.90;99.90;;;;;;5015924;28;19920;-71
2022/05/25 13:27:24;;;;;;;;;;;23.00;99.90;;;;;;5030610;28;19975;-71
2022/05/25 13:29:49;;;;;;;;;;;22.90;99.90;;;;;;5025732;28;20031;-79
2022/05/25 13:32:33;;;;;;;;;;;23.10;99.90;;;;;;5013953;28;20419;-79
2022/05/25 13:35:25;;;;;;;;;;;23.20;99.90;;;;;;5009186;28;19913;-78
2022/05/25 13:38:18;;;;;;;;;;;23.20;99.90;;;;;;4965811;28;20263;-82
2022/05/25 13:41:04;;;;;;;;;;;23.00;99.90;;;;;;4954132;28;19950;-84
2022/05/25 13:43:49;;;;;;;;;;;23.00;99.90;;;;;;4972649;28;19910;-83
2022/05/25 13:46:46;;;;;;;;;;;22.90;99.90;;;;;;4972900;28;19925;-82
2022/05/25 13:49:25;;;;;;;;;;;23.20;99.90;;;;;;4963248;28;20006;-83
2022/05/25 13:52:25;;;;;;;;;;;23.50;99.90;;;;;;4979258;28;19992;-78
2022/05/25 13:55:02;;;;;;;;;;;23.10;99.90;;;;;;4902670;28;20005;-78
2022/05/25 13:57:29;;;;;;;;;;;23.00;99.90;;;;;;4952907;28;19915;-78
2022/05/25 13:59:55;;;;;;;;;;;23.10;99.90;;;;;;4937626;29;19915;-78
2022/05/25 14:02:46;;;;;;;;;;;23.30;99.90;;;;;;4959594;28;20505;-78
2022/05/25 14:05:20;;;;;;;;;;;23.70;99.90;;;;;;4956768;29;19910;-78
2022/05/25 14:07:46;;;;;;;;;;;23.90;99.90;;;;;;4946862;28;20374;-82
2022/05/25 14:13:18;;;;;;;;;;;23.80;99.90;;;;;;4949713;29;19918;-82
2022/05/25 14:21:53;;;;;;;;;;;23.60;99.90;;;;;;4956903;29;19915;-81
2022/05/25 14:27:29;;;;;;;;;;;23.50;99.90;;;;;;4992430;28;21411;-83
2022/05/25 14:33:23;;;;;;;;;;;23.10;99.90;;;;;;5036556;28;20021;-83
2022/05/25 14:36:10;;;;;;;;;;;23.00;99.90;;;;;;5062349;28;19916;-83
2022/05/25 14:41:42;;;;;;;;;;;23.30;99.90;;;;;;5053052;28;19955;-74
2022/05/25 14:44:39;;;;;;;;;;;23.50;99.90;;;;;;5056128;28;19977;-86
2022/05/25 14:47:35;;;;;;;;;;;23.60;99.90;;;;;;5037957;28;19909;-88
2022/05/25 14:50:34;;;;;;;;;;;23.90;99.90;;;;;;5057103;28;19912;-84
2022/05/25 14:53:05;;;;;;;;;;;24.00;99.90;;;;;;5076092;28;20331;-77
2022/05/25 14:55:36;;;;;;;;;;;23.90;99.90;;;;;;5068343;28;20319;-70
2022/05/25 14:58:01;;;;;;;;;;;23.60;99.90;;;;;;5072314;28;19985;-73
2022/05/25 15:00:27;;;;;;;;;;;23.60;99.90;;;;;;5075907;28;20001;-74
2022/05/25 15:03:00;;;;;;;;;;;23.90;99.90;;;;;;5059919;28;19908;-76
2022/05/25 15:05:37;;;;;;;;;;;24.00;99.90;;;;;;5055941;28;19912;-73
2022/05/25 15:08:04;;;;;;;;;;;23.60;99.90;;;;;;5050217;28;20019;-74
2022/05/25 15:10:38;;;;;;;;;;;23.50;99.90;;;;;;5068516;28;19920;-73
2022/05/25 15:13:04;;;;;;;;;;;24.40;99.90;;;;;;5050736;28;19916;-74
2022/05/25 15:18:29;;;;;;;;;;;28.10;99.90;;;;;;5061415;28;20381;-75
2022/05/25 15:20:55;;;;;;;;;;;29.80;99.90;;;;;;5053283;28;19924;-76
2022/05/25 15:23:28;;;;;;;;;;;29.50;99.90;;;;;;5057821;28;19913;-75
2022/05/25 15:25:54;;;;;;;;;;;28.50;99.90;;;;;;5058369;28;19916;-74
2022/05/25 15:28:19;;;;;;;;;;;27.20;99.90;;;;;;5054458;28;19913;-75
2022/05/25 15:30:59;;;;;;;;;;;26.50;99.90;;;;;;5035221;28;19917;-74
2022/05/25 15:33:25;;;;;;;;;;;26.00;99.90;;;;;;5062884;28;19919;-74
2022/05/25 15:36:11;;;;;;;;;;;27.00;99.90;;;;;;5075454;28;19916;-74